Las Vegas, Nevada
Traffic Map
Current Weather Conditions
Las Vegas, Nevada
Scattered Clouds
Scattered Clouds
100°
Feels Like: 100°
Wind Chill: 100° Ceiling: Unl
Heat Index: 100° Visibility: 10mi
Dew Point: 58° Wind: 8mph
Humidity: 25% Direction: 160° (SSE)
Pressure: 29.87in Gusts: 0mph
Raw Report DataKLAS 022056Z 16007KT 10SM FEW120 FEW160 SCT220 38/14 A2987 RMK AO2 SLP081 CB DSNT NW ACC NE-E T03780144 58020
Traffic Incident Summary
Active as of:
Severity:
Category:
InformationThere was an issue retrieving the traffic information for this location. Please try a different location or try again shortly.
Advertisements
Track Severe Weather on mobile